sensor_id;sensor_type;location;lat;lon;timestamp;pressure;altitude;pressure_sealevel;temperature;humidity
48968;BME280;46511;53.148;8.204;2024-02-15T00:00:21;101485.41;;;14.53;100.00
48968;BME280;46511;53.148;8.204;2024-02-15T00:02:53;101485.44;;;14.23;100.00
48968;BME280;46511;53.148;8.204;2024-02-15T00:05:24;101489.66;;;14.41;100.00
48968;BME280;46511;53.148;8.204;2024-02-15T00:07:51;101485.88;;;14.60;100.00
48968;BME280;46511;53.148;8.204;2024-02-15T00:10:18;101486.78;;;14.44;100.00
48968;BME280;46511;53.148;8.204;2024-02-15T00:12:44;101495.59;;;14.46;100.00
48968;BME280;46511;53.148;8.204;2024-02-15T00:15:15;101493.31;;;14.10;100.00
48968;BME280;46511;53.148;8.204;2024-02-15T00:17:47;101490.00;;;14.21;100.00
48968;BME280;46511;53.148;8.204;2024-02-15T00:20:19;101486.25;;;14.53;100.00
48968;BME280;46511;53.148;8.204;2024-02-15T00:22:51;101489.66;;;14.41;100.00
48968;BME280;46511;53.148;8.204;2024-02-15T00:25:23;101491.97;;;14.47;100.00
48968;BME280;46511;53.148;8.204;2024-02-15T00:27:57;101497.94;;;14.22;100.00
48968;BME280;46511;53.148;8.204;2024-02-15T00:30:23;101508.63;;;14.22;100.00
48968;BME280;46511;53.148;8.204;2024-02-15T00:32:49;101498.44;;;14.43;100.00
48968;BME280;46511;53.148;8.204;2024-02-15T00:35:22;101495.81;;;14.72;100.00
48968;BME280;46511;53.148;8.204;2024-02-15T00:37:53;101498.81;;;14.37;100.00
48968;BME280;46511;53.148;8.204;2024-02-15T00:40:24;101503.19;;;14.38;100.00
48968;BME280;46511;53.148;8.204;2024-02-15T00:42:56;101486.00;;;14.28;100.00
48968;BME280;46511;53.148;8.204;2024-02-15T00:45:22;101501.69;;;14.34;100.00
48968;BME280;46511;53.148;8.204;2024-02-15T00:47:48;101501.47;;;14.37;100.00
48968;BME280;46511;53.148;8.204;2024-02-15T00:50:20;101493.63;;;14.50;100.00
48968;BME280;46511;53.148;8.204;2024-02-15T00:52:51;101489.69;;;14.55;100.00
48968;BME280;46511;53.148;8.204;2024-02-15T00:55:22;101510.03;;;14.72;100.00
48968;BME280;46511;53.148;8.204;2024-02-15T00:57:54;101516.03;;;14.47;100.00
48968;BME280;46511;53.148;8.204;2024-02-15T01:00:25;101508.94;;;14.32;100.00
48968;BME280;46511;53.148;8.204;2024-02-15T01:02:52;101511.06;;;14.55;100.00
48968;BME280;46511;53.148;8.204;2024-02-15T01:05:24;101513.38;;;14.62;100.00
48968;BME280;46511;53.148;8.204;2024-02-15T01:07:55;101512.75;;;14.42;100.00
48968;BME280;46511;53.148;8.204;2024-02-15T01:10:26;101506.28;;;14.46;100.00
48968;BME280;46511;53.148;8.204;2024-02-15T01:12:58;101500.94;;;14.46;100.00
48968;BME280;46511;53.148;8.204;2024-02-15T01:15:29;101505.06;;;14.80;100.00
48968;BME280;46511;53.148;8.204;2024-02-15T01:18:00;101508.59;;;14.67;100.00
48968;BME280;46511;53.148;8.204;2024-02-15T01:20:27;101517.41;;;14.24;100.00
48968;BME280;46511;53.148;8.204;2024-02-15T01:22:58;101513.13;;;14.22;100.00
48968;BME280;46511;53.148;8.204;2024-02-15T01:25:30;101519.03;;;14.27;100.00
48968;BME280;46511;53.148;8.204;2024-02-15T01:27:56;101518.78;;;14.32;100.00
48968;BME280;46511;53.148;8.204;2024-02-15T01:30:27;101510.94;;;14.43;100.00
48968;BME280;46511;53.148;8.204;2024-02-15T01:33:03;101512.16;;;14.37;100.00
48968;BME280;46511;53.148;8.204;2024-02-15T01:35:29;101510.94;;;14.43;100.00
48968;BME280;46511;53.148;8.204;2024-02-15T01:38:00;101513.19;;;14.65;100.00
48968;BME280;46511;53.148;8.204;2024-02-15T01:40:27;101503.25;;;14.67;100.00
48968;BME280;46511;53.148;8.204;2024-02-15T01:42:58;101507.00;;;14.50;100.00
48968;BME280;46511;53.148;8.204;2024-02-15T01:45:31;101515.75;;;14.52;100.00
48968;BME280;46511;53.148;8.204;2024-02-15T01:48:03;101512.69;;;14.58;100.00
48968;BME280;46511;53.148;8.204;2024-02-15T01:50:30;101510.13;;;14.71;100.00
48968;BME280;46511;53.148;8.204;2024-02-15T01:53:04;101509.56;;;14.51;100.00
48968;BME280;46511;53.148;8.204;2024-02-15T01:55:34;101500.53;;;14.38;100.00
48968;BME280;46511;53.148;8.204;2024-02-15T01:58:01;101502.69;;;14.62;100.00
48968;BME280;46511;53.148;8.204;2024-02-15T02:00:28;101497.53;;;14.73;100.00
48968;BME280;46511;53.148;8.204;2024-02-15T02:02:56;101514.22;;;14.48;100.00
48968;BME280;46511;53.148;8.204;2024-02-15T02:05:27;101505.72;;;14.55;100.00
48968;BME280;46511;53.148;8.204;2024-02-15T02:07:58;101496.66;;;14.58;100.00
48968;BME280;46511;53.148;8.204;2024-02-15T02:10:32;101498.41;;;14.15;100.00
48968;BME280;46511;53.148;8.204;2024-02-15T02:13:03;101490.66;;;14.54;100.00
48968;BME280;46511;53.148;8.204;2024-02-15T02:15:31;101476.91;;;14.61;100.00
48968;BME280;46511;53.148;8.204;2024-02-15T02:18:04;101474.22;;;14.61;100.00
48968;BME280;46511;53.148;8.204;2024-02-15T02:20:39;101472.78;;;14.55;100.00
48968;BME280;46511;53.148;8.204;2024-02-15T02:23:09;101481.56;;;14.57;100.00
48968;BME280;46511;53.148;8.204;2024-02-15T02:25:45;101484.13;;;14.44;100.00
48968;BME280;46511;53.148;8.204;2024-02-15T02:28:19;101493.31;;;14.54;100.00
48968;BME280;46511;53.148;8.204;2024-02-15T02:30:52;101485.31;;;14.69;100.00
48968;BME280;46511;53.148;8.204;2024-02-15T02:33:19;101493.69;;;14.48;100.00
48968;BME280;46511;53.148;8.204;2024-02-15T02:35:53;101498.50;;;14.27;100.00
48968;BME280;46511;53.148;8.204;2024-02-15T02:38:24;101492.50;;;14.38;100.00
48968;BME280;46511;53.148;8.204;2024-02-15T02:40:57;101490.41;;;14.43;100.00
48968;BME280;46511;53.148;8.204;2024-02-15T02:43:28;101494.81;;;14.44;100.00
48968;BME280;46511;53.148;8.204;2024-02-15T02:46:00;101485.69;;;14.63;100.00
48968;BME280;46511;53.148;8.204;2024-02-15T02:48:31;101488.63;;;14.58;100.00
48968;BME280;46511;53.148;8.204;2024-02-15T02:51:03;101492.75;;;14.64;100.00
48968;BME280;46511;53.148;8.204;2024-02-15T02:53:35;101495.13;;;14.68;100.00
48968;BME280;46511;53.148;8.204;2024-02-15T02:56:07;101492.75;;;14.64;100.00
48968;BME280;46511;53.148;8.204;2024-02-15T02:58:40;101493.69;;;14.77;100.00
48968;BME280;46511;53.148;8.204;2024-02-15T03:01:13;101501.47;;;14.23;100.00
48968;BME280;46511;53.148;8.204;2024-02-15T03:03:44;101501.53;;;14.66;100.00
48968;BME280;46511;53.148;8.204;2024-02-15T03:06:16;101500.19;;;14.58;100.00
48968;BME280;46511;53.148;8.204;2024-02-15T03:08:43;101493.03;;;14.73;100.00
48968;BME280;46511;53.148;8.204;2024-02-15T03:11:15;101483.97;;;14.62;100.00
48968;BME280;46511;53.148;8.204;2024-02-15T03:13:47;101473.66;;;14.55;100.00
48968;BME280;46511;53.148;8.204;2024-02-15T03:16:14;101486.25;;;14.82;100.00
48968;BME280;46511;53.148;8.204;2024-02-15T03:18:45;101488.53;;;14.74;100.00
48968;BME280;46511;53.148;8.204;2024-02-15T03:21:12;101498.25;;;14.32;100.00
48968;BME280;46511;53.148;8.204;2024-02-15T03:23:43;101500.31;;;14.71;100.00
48968;BME280;46511;53.148;8.204;2024-02-15T03:26:10;101500.81;;;14.34;100.00
48968;BME280;46511;53.148;8.204;2024-02-15T03:28:43;101500.97;;;14.61;100.00
48968;BME280;46511;53.148;8.204;2024-02-15T03:31:15;101499.81;;;14.50;100.00
48968;BME280;46511;53.148;8.204;2024-02-15T03:33:43;101501.47;;;14.37;100.00
48968;BME280;46511;53.148;8.204;2024-02-15T03:36:15;101504.00;;;14.54;100.00
48968;BME280;46511;53.148;8.204;2024-02-15T03:38:49;101512.63;;;14.15;100.00
48968;BME280;46511;53.148;8.204;2024-02-15T03:41:15;101509.88;;;14.31;100.00
48968;BME280;46511;53.148;8.204;2024-02-15T03:43:46;101512.25;;;14.21;100.00
48968;BME280;46511;53.148;8.204;2024-02-15T03:46:18;101509.41;;;13.94;100.00
48968;BME280;46511;53.148;8.204;2024-02-15T03:48:50;101515.47;;;14.12;100.00
48968;BME280;46511;53.148;8.204;2024-02-15T03:51:17;101520.53;;;14.17;100.00
48968;BME280;46511;53.148;8.204;2024-02-15T03:53:49;101512.53;;;14.17;100.00
48968;BME280;46511;53.148;8.204;2024-02-15T03:56:15;101519.56;;;14.48;100.00
48968;BME280;46511;53.148;8.204;2024-02-15T03:58:47;101507.78;;;14.36;100.00
48968;BME280;46511;53.148;8.204;2024-02-15T04:01:18;101511.91;;;14.42;100.00
48968;BME280;46511;53.148;8.204;2024-02-15T04:03:49;101515.44;;;14.42;100.00
48968;BME280;46511;53.148;8.204;2024-02-15T04:06:21;101525.63;;;14.36;100.00
48968;BME280;46511;53.148;8.204;2024-02-15T04:08:50;101516.47;;;14.40;100.00
48968;BME280;46511;53.148;8.204;2024-02-15T04:11:17;101512.13;;;14.09;100.00
48968;BME280;46511;53.148;8.204;2024-02-15T04:13:45;101513.69;;;14.27;100.00
48968;BME280;46511;53.148;8.204;2024-02-15T04:16:17;101516.72;;;14.21;100.00
48968;BME280;46511;53.148;8.204;2024-02-15T04:18:44;101517.59;;;14.21;100.00
48968;BME280;46511;53.148;8.204;2024-02-15T04:21:16;101517.66;;;14.20;100.00
48968;BME280;46511;53.148;8.204;2024-02-15T04:23:45;101517.44;;;13.94;100.00
48968;BME280;46511;53.148;8.204;2024-02-15T04:26:17;101520.03;;;14.40;100.00
48968;BME280;46511;53.148;8.204;2024-02-15T04:28:50;101516.75;;;14.35;100.00
48968;BME280;46511;53.148;8.204;2024-02-15T04:31:24;101524.97;;;14.32;100.00
48968;BME280;46511;53.148;8.204;2024-02-15T04:33:58;101522.34;;;14.46;100.00
48968;BME280;46511;53.148;8.204;2024-02-15T04:36:24;101530.69;;;14.26;100.00
48968;BME280;46511;53.148;8.204;2024-02-15T04:38:56;101530.94;;;14.51;100.00
48968;BME280;46511;53.148;8.204;2024-02-15T04:41:23;101528.38;;;14.50;100.00
48968;BME280;46511;53.148;8.204;2024-02-15T04:43:54;101517.03;;;14.30;100.00
48968;BME280;46511;53.148;8.204;2024-02-15T04:46:25;101511.88;;;14.27;100.00
48968;BME280;46511;53.148;8.204;2024-02-15T04:48:57;101515.59;;;14.25;100.00
48968;BME280;46511;53.148;8.204;2024-02-15T04:51:31;101521.81;;;14.40;100.00
48968;BME280;46511;53.148;8.204;2024-02-15T04:54:03;101518.28;;;14.25;100.00
48968;BME280;46511;53.148;8.204;2024-02-15T04:56:34;101523.19;;;14.47;100.00
48968;BME280;46511;53.148;8.204;2024-02-15T04:59:07;101522.53;;;14.57;100.00
48968;BME280;46511;53.148;8.204;2024-02-15T05:01:39;101525.13;;;14.29;100.00
48968;BME280;46511;53.148;8.204;2024-02-15T05:04:11;101516.41;;;14.55;100.00
48968;BME280;46511;53.148;8.204;2024-02-15T05:06:44;101513.53;;;14.44;100.00
48968;BME280;46511;53.148;8.204;2024-02-15T05:09:16;101516.41;;;14.55;100.00
48968;BME280;46511;53.148;8.204;2024-02-15T05:11:49;101517.56;;;14.66;100.00
48968;BME280;46511;53.148;8.204;2024-02-15T05:14:16;101521.38;;;14.76;100.00
48968;BME280;46511;53.148;8.204;2024-02-15T05:16:50;101518.06;;;14.72;100.00
48968;BME280;46511;53.148;8.204;2024-02-15T05:19:22;101520.81;;;14.56;100.00
48968;BME280;46511;53.148;8.204;2024-02-15T05:21:54;101519.94;;;14.42;100.00
48968;BME280;46511;53.148;8.204;2024-02-15T05:24:26;101515.50;;;14.71;100.00
48968;BME280;46511;53.148;8.204;2024-02-15T05:26:58;101521.66;;;14.43;100.00
48968;BME280;46511;53.148;8.204;2024-02-15T05:29:29;101517.28;;;14.56;100.00
48968;BME280;46511;53.148;8.204;2024-02-15T05:32:04;101516.16;;;14.30;100.00
48968;BME280;46511;53.148;8.204;2024-02-15T05:34:31;101512.94;;;14.39;100.00
48968;BME280;46511;53.148;8.204;2024-02-15T05:37:03;101513.88;;;14.38;100.00
48968;BME280;46511;53.148;8.204;2024-02-15T05:39:34;101504.59;;;14.60;100.00
48968;BME280;46511;53.148;8.204;2024-02-15T05:42:01;101500.38;;;14.55;100.00
48968;BME280;46511;53.148;8.204;2024-02-15T05:44:27;101501.97;;;14.44;100.00
48968;BME280;46511;53.148;8.204;2024-02-15T05:46:59;101508.63;;;14.22;100.00
48968;BME280;46511;53.148;8.204;2024-02-15T05:49:26;101504.16;;;14.23;100.00
48968;BME280;46511;53.148;8.204;2024-02-15T05:51:53;101503.44;;;14.19;100.00
48968;BME280;46511;53.148;8.204;2024-02-15T05:54:25;101496.53;;;14.31;100.00
48968;BME280;46511;53.148;8.204;2024-02-15T05:56:51;101501.22;;;14.12;100.00
48968;BME280;46511;53.148;8.204;2024-02-15T05:59:24;101489.13;;;14.20;100.00
48968;BME280;46511;53.148;8.204;2024-02-15T06:01:56;101499.81;;;14.20;100.00
48968;BME280;46511;53.148;8.204;2024-02-15T06:04:23;101496.47;;;14.03;100.00
48968;BME280;46511;53.148;8.204;2024-02-15T06:06:55;101489.81;;;14.24;100.00
48968;BME280;46511;53.148;8.204;2024-02-15T06:09:29;101492.31;;;14.27;100.00
48968;BME280;46511;53.148;8.204;2024-02-15T06:12:04;101490.25;;;14.46;100.00
48968;BME280;46511;53.148;8.204;2024-02-15T06:14:31;101484.38;;;14.40;100.00
48968;BME280;46511;53.148;8.204;2024-02-15T06:16:58;101485.06;;;14.43;100.00
48968;BME280;46511;53.148;8.204;2024-02-15T06:19:30;101476.47;;;14.38;100.00
48968;BME280;46511;53.148;8.204;2024-02-15T06:22:03;101473.69;;;14.25;100.00
48968;BME280;46511;53.148;8.204;2024-02-15T06:24:35;101476.81;;;14.18;100.00
48968;BME280;46511;53.148;8.204;2024-02-15T06:27:02;101463.63;;;14.45;100.00
48968;BME280;46511;53.148;8.204;2024-02-15T06:29:33;101477.22;;;14.26;100.00
48968;BME280;46511;53.148;8.204;2024-02-15T06:32:18;101476.47;;;14.38;100.00
48968;BME280;46511;53.148;8.204;2024-02-15T06:35:03;101479.97;;;14.10;100.00
48968;BME280;46511;53.148;8.204;2024-02-15T06:37:48;101482.88;;;14.21;100.00
48968;BME280;46511;53.148;8.204;2024-02-15T06:40:38;101483.72;;;14.36;100.00
48968;BME280;46511;53.148;8.204;2024-02-15T06:43:10;101474.00;;;14.49;100.00
48968;BME280;46511;53.148;8.204;2024-02-15T06:45:36;101470.75;;;14.44;100.00
48968;BME280;46511;53.148;8.204;2024-02-15T06:48:09;101476.69;;;14.49;100.00
48968;BME280;46511;53.148;8.204;2024-02-15T06:50:40;101483.81;;;14.35;100.00
48968;BME280;46511;53.148;8.204;2024-02-15T06:53:07;101472.22;;;14.50;100.00
48968;BME280;46511;53.148;8.204;2024-02-15T06:55:34;101485.47;;;14.66;100.00
48968;BME280;46511;53.148;8.204;2024-02-15T06:58:07;101480.91;;;14.53;100.00
48968;BME280;46511;53.148;8.204;2024-02-15T07:00:34;101475.47;;;14.55;100.00
48968;BME280;46511;53.148;8.204;2024-02-15T07:03:00;101478.50;;;14.49;100.00
48968;BME280;46511;53.148;8.204;2024-02-15T07:05:32;101486.00;;;14.28;100.00
48968;BME280;46511;53.148;8.204;2024-02-15T07:08:05;101485.84;;;14.31;100.00
48968;BME280;46511;53.148;8.204;2024-02-15T07:10:37;101488.88;;;14.25;100.00
48968;BME280;46511;53.148;8.204;2024-02-15T07:13:10;101477.47;;;14.51;100.00
48968;BME280;46511;53.148;8.204;2024-02-15T07:15:36;101489.06;;;14.36;100.00
48968;BME280;46511;53.148;8.204;2024-02-15T07:18:10;101485.44;;;14.37;100.00
48968;BME280;46511;53.148;8.204;2024-02-15T07:20:38;101469.84;;;14.60;100.00
48968;BME280;46511;53.148;8.204;2024-02-15T07:23:05;101478.38;;;14.36;100.00
48968;BME280;46511;53.148;8.204;2024-02-15T07:25:37;101482.38;;;14.29;100.00
48968;BME280;46511;53.148;8.204;2024-02-15T07:28:10;101481.78;;;14.54;100.00
48968;BME280;46511;53.148;8.204;2024-02-15T07:30:41;101476.41;;;14.54;100.00
48968;BME280;46511;53.148;8.204;2024-02-15T07:33:08;101488.34;;;14.48;100.00
48968;BME280;46511;53.148;8.204;2024-02-15T07:35:34;101483.94;;;14.47;100.00
48968;BME280;46511;53.148;8.204;2024-02-15T07:38:06;101484.06;;;14.74;100.00
48968;BME280;46511;53.148;8.204;2024-02-15T07:40:38;101482.63;;;14.54;100.00
48968;BME280;46511;53.148;8.204;2024-02-15T07:43:10;101490.34;;;14.73;100.00
48968;BME280;46511;53.148;8.204;2024-02-15T07:45:43;101499.25;;;14.74;100.00
48968;BME280;46511;53.148;8.204;2024-02-15T07:48:14;101500.00;;;14.62;100.00
48968;BME280;46511;53.148;8.204;2024-02-15T07:50:41;101500.41;;;14.70;100.00
48968;BME280;46511;53.148;8.204;2024-02-15T07:53:15;101493.31;;;14.83;100.00
48968;BME280;46511;53.148;8.204;2024-02-15T07:55:43;101492.63;;;15.08;100.00
48968;BME280;46511;53.148;8.204;2024-02-15T07:58:15;101489.69;;;14.70;100.00
48968;BME280;46511;53.148;8.204;2024-02-15T08:00:49;101487.19;;;14.95;100.00
48968;BME280;46511;53.148;8.204;2024-02-15T08:03:20;101488.13;;;14.94;100.00
48968;BME280;46511;53.148;8.204;2024-02-15T08:05:52;101479.03;;;15.11;100.00
48968;BME280;46511;53.148;8.204;2024-02-15T08:08:18;101476.94;;;14.88;100.00
48968;BME280;46511;53.148;8.204;2024-02-15T08:10:49;101473.56;;;15.12;100.00
48968;BME280;46511;53.148;8.204;2024-02-15T08:13:22;101482.34;;;15.14;100.00
48968;BME280;46511;53.148;8.204;2024-02-15T08:15:59;101479.25;;;14.94;100.00
48968;BME280;46511;53.148;8.204;2024-02-15T08:18:25;101475.53;;;14.82;100.00
48968;BME280;46511;53.148;8.204;2024-02-15T08:20:57;101475.88;;;15.04;100.00
48968;BME280;46511;53.148;8.204;2024-02-15T08:23:28;101478.22;;;14.82;100.00
48968;BME280;46511;53.148;8.204;2024-02-15T08:26:00;101472.88;;;14.68;100.00
48968;BME280;46511;53.148;8.204;2024-02-15T08:28:27;101473.53;;;14.85;100.00
48968;BME280;46511;53.148;8.204;2024-02-15T08:30:59;101468.75;;;14.91;100.00
48968;BME280;46511;53.148;8.204;2024-02-15T08:33:31;101467.63;;;14.80;100.00
48968;BME280;46511;53.148;8.204;2024-02-15T08:36:00;101470.75;;;15.01;100.00
48968;BME280;46511;53.148;8.204;2024-02-15T08:38:33;101468.53;;;15.08;100.00
48968;BME280;46511;53.148;8.204;2024-02-15T08:41:05;101462.41;;;15.06;100.00
48968;BME280;46511;53.148;8.204;2024-02-15T08:43:38;101465.91;;;15.21;100.00
48968;BME280;46511;53.148;8.204;2024-02-15T08:46:12;101462.38;;;15.20;100.00
48968;BME280;46511;53.148;8.204;2024-02-15T08:48:44;101457.34;;;15.01;100.00
48968;BME280;46511;53.148;8.204;2024-02-15T08:51:17;101465.59;;;14.98;100.00
48968;BME280;46511;53.148;8.204;2024-02-15T08:53:44;101464.38;;;14.90;100.00
48968;BME280;46511;53.148;8.204;2024-02-15T08:56:16;101459.06;;;15.02;100.00
48968;BME280;46511;53.148;8.204;2024-02-15T08:58:42;101449.63;;;15.24;100.00
48968;BME280;46511;53.148;8.204;2024-02-15T09:01:09;101444.84;;;15.02;100.00
48968;BME280;46511;53.148;8.204;2024-02-15T09:03:40;101462.59;;;15.03;100.00
48968;BME280;46511;53.148;8.204;2024-02-15T09:06:07;101455.59;;;15.14;100.00
48968;BME280;46511;53.148;8.204;2024-02-15T09:08:38;101454.75;;;15.14;100.00
48968;BME280;46511;53.148;8.204;2024-02-15T09:11:09;101451.03;;;15.02;100.00
48968;BME280;46511;53.148;8.204;2024-02-15T09:13:43;101452.28;;;14.97;100.00
48968;BME280;46511;53.148;8.204;2024-02-15T09:16:14;101456.63;;;14.85;100.00
48968;BME280;46511;53.148;8.204;2024-02-15T09:18:46;101458.38;;;14.72;100.00
48968;BME280;46511;53.148;8.204;2024-02-15T09:21:18;101456.06;;;15.21;100.00
48968;BME280;46511;53.148;8.204;2024-02-15T09:23:49;101461.47;;;15.07;100.00
48968;BME280;46511;53.148;8.204;2024-02-15T09:26:16;101452.97;;;15.00;100.00
48968;BME280;46511;53.148;8.204;2024-02-15T09:28:48;101460.84;;;14.89;100.00
48968;BME280;46511;53.148;8.204;2024-02-15T09:31:15;101460.63;;;14.92;100.00
48968;BME280;46511;53.148;8.204;2024-02-15T09:33:46;101468.94;;;14.88;100.00
48968;BME280;46511;53.148;8.204;2024-02-15T09:36:13;101464.56;;;14.72;100.00
48968;BME280;46511;53.148;8.204;2024-02-15T09:38:39;101469.44;;;14.80;100.00
48968;BME280;46511;53.148;8.204;2024-02-15T09:41:06;101465.22;;;14.76;100.00
48968;BME280;46511;53.148;8.204;2024-02-15T09:43:38;101467.09;;;15.02;100.00
48968;BME280;46511;53.148;8.204;2024-02-15T09:46:09;101459.28;;;14.85;100.00
48968;BME280;46511;53.148;8.204;2024-02-15T09:48:41;101461.59;;;14.48;100.00
48968;BME280;46511;53.148;8.204;2024-02-15T09:51:18;101469.81;;;14.88;100.00
48968;BME280;46511;53.148;8.204;2024-02-15T09:53:52;101467.16;;;14.60;100.00
48968;BME280;46511;53.148;8.204;2024-02-15T09:56:24;101470.69;;;14.89;100.00
48968;BME280;46511;53.148;8.204;2024-02-15T09:58:57;101466.94;;;14.91;100.00
48968;BME280;46511;53.148;8.204;2024-02-15T10:01:31;101474.59;;;14.97;100.00
48968;BME280;46511;53.148;8.204;2024-02-15T10:04:04;101466.56;;;14.97;100.00
48968;BME280;46511;53.148;8.204;2024-02-15T10:06:37;101462.66;;;15.15;100.00
48968;BME280;46511;53.148;8.204;2024-02-15T10:09:23;101463.50;;;14.89;100.00
48968;BME280;46511;53.148;8.204;2024-02-15T10:12:02;101462.00;;;14.71;100.00
48968;BME280;46511;53.148;8.204;2024-02-15T10:14:38;101461.41;;;14.80;100.00
48968;BME280;46511;53.148;8.204;2024-02-15T10:17:05;101458.75;;;14.80;100.00
48968;BME280;46511;53.148;8.204;2024-02-15T10:19:42;101450.81;;;14.64;100.00
48968;BME280;46511;53.148;8.204;2024-02-15T10:22:15;101449.19;;;14.76;100.00
48968;BME280;46511;53.148;8.204;2024-02-15T10:24:41;101444.69;;;14.91;100.00
48968;BME280;46511;53.148;8.204;2024-02-15T10:27:08;101449.94;;;14.78;100.00
48968;BME280;46511;53.148;8.204;2024-02-15T10:29:36;101455.31;;;14.64;100.00
48968;BME280;46511;53.148;8.204;2024-02-15T10:32:05;101451.44;;;14.96;100.00
48968;BME280;46511;53.148;8.204;2024-02-15T10:34:44;101452.44;;;14.81;100.00
48968;BME280;46511;53.148;8.204;2024-02-15T10:37:15;101447.41;;;15.03;100.00
48968;BME280;46511;53.148;8.204;2024-02-15T10:40:00;101449.16;;;14.90;100.00
48968;BME280;46511;53.148;8.204;2024-02-15T10:42:32;101445.69;;;15.02;100.00
48968;BME280;46511;53.148;8.204;2024-02-15T10:45:01;101449.44;;;15.00;100.00
48968;BME280;46511;53.148;8.204;2024-02-15T10:47:35;101445.00;;;15.13;100.00
48968;BME280;46511;53.148;8.204;2024-02-15T10:50:06;101449.72;;;14.95;100.00
48968;BME280;46511;53.148;8.204;2024-02-15T10:52:41;101444.94;;;15.00;100.00
48968;BME280;46511;53.148;8.204;2024-02-15T10:55:35;101444.59;;;14.78;100.00
48968;BME280;46511;53.148;8.204;2024-02-15T10:58:12;101450.34;;;14.57;100.00
48968;BME280;46511;53.148;8.204;2024-02-15T11:00:42;101440.41;;;15.42;100.00
48968;BME280;46511;53.148;8.204;2024-02-15T11:03:13;101432.94;;;15.20;100.00
48968;BME280;46511;53.148;8.204;2024-02-15T11:05:56;101433.72;;;15.35;100.00
48968;BME280;46511;53.148;8.204;2024-02-15T11:08:26;101423.47;;;15.14;100.00
48968;BME280;46511;53.148;8.204;2024-02-15T11:10:58;101435.06;;;14.74;100.00
48968;BME280;46511;53.148;8.204;2024-02-15T11:13:30;101428.03;;;15.27;100.00
48968;BME280;46511;53.148;8.204;2024-02-15T11:16:02;101431.94;;;15.08;100.00
48968;BME280;46511;53.148;8.204;2024-02-15T11:18:44;101427.59;;;15.20;100.00
48968;BME280;46511;53.148;8.204;2024-02-15T11:21:15;101422.22;;;15.20;100.00
48968;BME280;46511;53.148;8.204;2024-02-15T11:23:43;101419.81;;;15.30;100.00
48968;BME280;46511;53.148;8.204;2024-02-15T11:35:11;101414.44;;;15.57;100.00
48968;BME280;46511;53.148;8.204;2024-02-15T11:40:18;101412.66;;;15.43;100.00
48968;BME280;46511;53.148;8.204;2024-02-15T11:42:57;101404.63;;;15.70;100.00
48968;BME280;46511;53.148;8.204;2024-02-15T11:45:28;101399.59;;;15.91;100.00
48968;BME280;46511;53.148;8.204;2024-02-15T11:48:03;101394.13;;;15.40;100.00
48968;BME280;46511;53.148;8.204;2024-02-15T11:50:37;101394.81;;;15.56;100.00
48968;BME280;46511;53.148;8.204;2024-02-15T11:53:05;101393.38;;;15.38;100.00
48968;BME280;46511;53.148;8.204;2024-02-15T11:55:36;101402.06;;;15.68;100.00
48968;BME280;46511;53.148;8.204;2024-02-15T11:58:09;101398.13;;;15.47;100.00
48968;BME280;46511;53.148;8.204;2024-02-15T12:00:40;101397.31;;;15.72;100.00
48968;BME280;46511;53.148;8.204;2024-02-15T12:03:30;101397.09;;;15.62;100.00
48968;BME280;46511;53.148;8.204;2024-02-15T12:06:19;101392.78;;;15.47;100.00
48968;BME280;46511;53.148;8.204;2024-02-15T12:09:09;101394.97;;;15.80;100.00
48968;BME280;46511;53.148;8.204;2024-02-15T12:11:57;101391.56;;;15.78;100.00
48968;BME280;46511;53.148;8.204;2024-02-15T12:14:43;101399.50;;;15.40;100.00
48968;BME280;46511;53.148;8.204;2024-02-15T12:17:33;101397.28;;;15.47;100.00
48968;BME280;46511;53.148;8.204;2024-02-15T12:20:35;101400.72;;;15.22;100.00
48968;BME280;46511;53.148;8.204;2024-02-15T12:23:01;101402.31;;;15.51;100.00
48968;BME280;46511;53.148;8.204;2024-02-15T12:25:34;101399.63;;;15.51;100.00
48968;BME280;46511;53.148;8.204;2024-02-15T12:28:01;101395.78;;;15.55;100.00
48968;BME280;46511;53.148;8.204;2024-02-15T12:30:34;101396.69;;;15.29;100.00
48968;BME280;46511;53.148;8.204;2024-02-15T12:33:11;101402.34;;;14.97;100.00
48968;BME280;46511;53.148;8.204;2024-02-15T12:35:46;101400.00;;;15.05;100.00
48968;BME280;46511;53.148;8.204;2024-02-15T12:38:12;101398.72;;;14.98;100.00
48968;BME280;46511;53.148;8.204;2024-02-15T12:40:47;101399.34;;;15.02;100.00
48968;BME280;46511;53.148;8.204;2024-02-15T12:43:18;101390.75;;;15.24;100.00
48968;BME280;46511;53.148;8.204;2024-02-15T12:45:50;101392.81;;;15.33;100.00
48968;BME280;46511;53.148;8.204;2024-02-15T12:48:21;101392.47;;;15.25;100.00
48968;BME280;46511;53.148;8.204;2024-02-15T12:50:47;101392.78;;;14.93;100.00
48968;BME280;46511;53.148;8.204;2024-02-15T12:53:20;101402.50;;;15.08;100.00
48968;BME280;46511;53.148;8.204;2024-02-15T12:55:55;101395.16;;;15.25;100.00
48968;BME280;46511;53.148;8.204;2024-02-15T12:58:27;101393.19;;;15.54;100.00
48968;BME280;46511;53.148;8.204;2024-02-15T13:00:55;101390.81;;;15.36;100.00
48968;BME280;46511;53.148;8.204;2024-02-15T13:03:29;101389.56;;;15.55;100.00
48968;BME280;46511;53.148;8.204;2024-02-15T13:06:01;101374.16;;;15.58;100.00
48968;BME280;46511;53.148;8.204;2024-02-15T13:08:32;101378.28;;;15.64;100.00
48968;BME280;46511;53.148;8.204;2024-02-15T13:10:58;101377.19;;;15.66;100.00
48968;BME280;46511;53.148;8.204;2024-02-15T13:13:30;101365.91;;;15.22;100.00